sensor_id;sensor_type;location;lat;lon;timestamp;pressure;altitude;pressure_sealevel;temperature;humidity
69570;BME280;56781;42.292;23.146;2023-03-04T00:02:26;95627.84;;;4.27;100.00
69570;BME280;56781;42.292;23.146;2023-03-04T00:04:53;95628.59;;;4.17;100.00
69570;BME280;56781;42.292;23.146;2023-03-04T00:07:20;95618.72;;;4.03;100.00
69570;BME280;56781;42.292;23.146;2023-03-04T00:09:47;95628.81;;;4.11;100.00
69570;BME280;56781;42.292;23.146;2023-03-04T00:12:14;95617.09;;;3.96;100.00
69570;BME280;56781;42.292;23.146;2023-03-04T00:14:42;95617.63;;;3.98;100.00
69570;BME280;56781;42.292;23.146;2023-03-04T00:17:09;95570.81;;;3.67;100.00
69570;BME280;56781;42.292;23.146;2023-03-04T00:19:36;95629.53;;;4.01;100.00
69570;BME280;56781;42.292;23.146;2023-03-04T00:22:04;95601.28;;;4.12;100.00
69570;BME280;56781;42.292;23.146;2023-03-04T00:24:31;95626.81;;;4.33;100.00
69570;BME280;56781;42.292;23.146;2023-03-04T00:26:58;95599.19;;;4.19;100.00
69570;BME280;56781;42.292;23.146;2023-03-04T00:29:25;95596.25;;;4.10;100.00
69570;BME280;56781;42.292;23.146;2023-03-04T00:31:52;95617.84;;;4.34;100.00
69570;BME280;56781;42.292;23.146;2023-03-04T00:34:20;95587.50;;;4.15;100.00
69570;BME280;56781;42.292;23.146;2023-03-04T00:36:47;95580.63;;;4.14;100.00
69570;BME280;56781;42.292;23.146;2023-03-04T00:39:14;95615.19;;;4.34;100.00
69570;BME280;56781;42.292;23.146;2023-03-04T00:41:41;95571.59;;;4.10;100.00
69570;BME280;56781;42.292;23.146;2023-03-04T00:44:08;95598.44;;;4.29;100.00
69570;BME280;56781;42.292;23.146;2023-03-04T00:46:35;95571.41;;;4.21;100.00
69570;BME280;56781;42.292;23.146;2023-03-04T00:49:03;95582.06;;;4.32;100.00
69570;BME280;56781;42.292;23.146;2023-03-04T00:51:30;95598.78;;;4.42;100.00
69570;BME280;56781;42.292;23.146;2023-03-04T00:53:57;95586.84;;;4.40;100.00
69570;BME280;56781;42.292;23.146;2023-03-04T00:56:26;95590.28;;;4.35;100.00
69570;BME280;56781;42.292;23.146;2023-03-04T00:58:54;95595.59;;;4.40;100.00
69570;BME280;56781;42.292;23.146;2023-03-04T01:01:21;95558.94;;;4.22;100.00
69570;BME280;56781;42.292;23.146;2023-03-04T01:03:48;95572.19;;;4.22;100.00
69570;BME280;56781;42.292;23.146;2023-03-04T01:06:16;95557.31;;;4.11;100.00
69570;BME280;56781;42.292;23.146;2023-03-04T01:08:43;95593.13;;;4.29;100.00
69570;BME280;56781;42.292;23.146;2023-03-04T01:11:10;95568.41;;;4.08;100.00
69570;BME280;56781;42.292;23.146;2023-03-04T01:13:37;95596.56;;;4.24;100.00
69570;BME280;56781;42.292;23.146;2023-03-04T01:16:06;95550.41;;;4.05;100.00
69570;BME280;56781;42.292;23.146;2023-03-04T01:18:33;95563.69;;;4.20;100.00
69570;BME280;56781;42.292;23.146;2023-03-04T01:21:00;95590.78;;;4.32;100.00
69570;BME280;56781;42.292;23.146;2023-03-04T01:23:27;95564.72;;;4.14;100.00
69570;BME280;56781;42.292;23.146;2023-03-04T01:25:54;95563.63;;;4.10;100.00
69570;BME280;56781;42.292;23.146;2023-03-04T01:28:22;95596.34;;;4.31;100.00
69570;BME280;56781;42.292;23.146;2023-03-04T01:30:49;95564.19;;;4.12;100.00
69570;BME280;56781;42.292;23.146;2023-03-04T01:33:16;95594.22;;;4.33;100.00
69570;BME280;56781;42.292;23.146;2023-03-04T01:35:43;95560.50;;;4.18;100.00
69570;BME280;56781;42.292;23.146;2023-03-04T01:38:10;95563.44;;;4.21;100.00
69570;BME280;56781;42.292;23.146;2023-03-04T01:40:38;95562.94;;;4.25;100.00
69570;BME280;56781;42.292;23.146;2023-03-04T01:43:05;95573.88;;;4.43;100.00
69570;BME280;56781;42.292;23.146;2023-03-04T01:45:34;95546.25;;;4.29;100.00
69570;BME280;56781;42.292;23.146;2023-03-04T01:48:03;95554.19;;;4.24;100.00
69570;BME280;56781;42.292;23.146;2023-03-04T01:50:32;95578.88;;;4.35;100.00
69570;BME280;56781;42.292;23.146;2023-03-04T01:53:03;95545.63;;;4.12;100.00
69570;BME280;56781;42.292;23.146;2023-03-04T01:55:30;95574.88;;;4.32;100.00
69570;BME280;56781;42.292;23.146;2023-03-04T01:57:58;95564.84;;;4.34;100.00
69570;BME280;56781;42.292;23.146;2023-03-04T02:00:31;95570.41;;;4.38;100.00
69570;BME280;56781;42.292;23.146;2023-03-04T02:03:10;95548.63;;;4.31;100.00
69570;BME280;56781;42.292;23.146;2023-03-04T02:05:43;95542.78;;;4.24;100.00
69570;BME280;56781;42.292;23.146;2023-03-04T02:08:12;95528.72;;;4.18;100.00
69570;BME280;56781;42.292;23.146;2023-03-04T02:10:41;95516.28;;;4.18;100.00
69570;BME280;56781;42.292;23.146;2023-03-04T02:13:09;95539.31;;;4.18;100.00
69570;BME280;56781;42.292;23.146;2023-03-04T02:15:37;95554.72;;;4.31;100.00
69570;BME280;56781;42.292;23.146;2023-03-04T02:18:18;95526.84;;;4.13;100.00
69570;BME280;56781;42.292;23.146;2023-03-04T02:23:29;95530.25;;;4.09;100.00
69570;BME280;56781;42.292;23.146;2023-03-04T02:28:48;95520.72;;;4.03;100.00
69570;BME280;56781;42.292;23.146;2023-03-04T02:33:53;95525.25;;;4.12;100.00
69570;BME280;56781;42.292;23.146;2023-03-04T02:36:21;95508.00;;;4.05;100.00
69570;BME280;56781;42.292;23.146;2023-03-04T02:38:50;95520.28;;;4.21;100.00
69570;BME280;56781;42.292;23.146;2023-03-04T02:41:22;95509.66;;;4.16;100.00
69570;BME280;56781;42.292;23.146;2023-03-04T02:43:52;95520.28;;;4.21;100.00
69570;BME280;56781;42.292;23.146;2023-03-04T02:46:20;95519.19;;;4.17;100.00
69570;BME280;56781;42.292;23.146;2023-03-04T02:48:49;95501.13;;;4.09;100.00
69570;BME280;56781;42.292;23.146;2023-03-04T02:51:17;95521.59;;;4.24;100.00
69570;BME280;56781;42.292;23.146;2023-03-04T02:53:44;95512.00;;;4.07;100.00
69570;BME280;56781;42.292;23.146;2023-03-04T02:56:11;95510.66;;;4.10;100.00
69570;BME280;56781;42.292;23.146;2023-03-04T02:58:38;95506.16;;;4.05;100.00
69570;BME280;56781;42.292;23.146;2023-03-04T03:01:07;95499.78;;;4.06;100.00
69570;BME280;56781;42.292;23.146;2023-03-04T03:03:34;95520.56;;;4.30;100.00
69570;BME280;56781;42.292;23.146;2023-03-04T03:06:01;95494.28;;;4.13;100.00
69570;BME280;56781;42.292;23.146;2023-03-04T03:08:28;95504.34;;;4.16;100.00
69570;BME280;56781;42.292;23.146;2023-03-04T03:10:55;95525.00;;;4.14;100.00
69570;BME280;56781;42.292;23.146;2023-03-04T03:13:23;95496.59;;;4.04;100.00
69570;BME280;56781;42.292;23.146;2023-03-04T03:15:50;95478.28;;;3.92;100.00
69570;BME280;56781;42.292;23.146;2023-03-04T03:18:17;95486.28;;;4.03;100.00
69570;BME280;56781;42.292;23.146;2023-03-04T03:20:45;95502.47;;;4.11;100.00
69570;BME280;56781;42.292;23.146;2023-03-04T03:23:12;95499.28;;;4.09;100.00
69570;BME280;56781;42.292;23.146;2023-03-04T03:25:39;95517.38;;;4.28;100.00
69570;BME280;56781;42.292;23.146;2023-03-04T03:28:07;95505.94;;;4.17;100.00
69570;BME280;56781;42.292;23.146;2023-03-04T03:30:34;95496.91;;;4.08;100.00
69570;BME280;56781;42.292;23.146;2023-03-04T03:33:01;95493.69;;;4.06;100.00
69570;BME280;56781;42.292;23.146;2023-03-04T03:35:28;95512.84;;;4.28;100.00
69570;BME280;56781;42.292;23.146;2023-03-04T03:37:55;95487.88;;;4.09;100.00
69570;BME280;56781;42.292;23.146;2023-03-04T03:40:22;95495.34;;;4.22;100.00
69570;BME280;56781;42.292;23.146;2023-03-04T03:42:49;95479.41;;;4.07;100.00
69570;BME280;56781;42.292;23.146;2023-03-04T03:45:16;95516.56;;;4.27;100.00
69570;BME280;56781;42.292;23.146;2023-03-04T03:47:44;95512.84;;;4.28;100.00
69570;BME280;56781;42.292;23.146;2023-03-04T03:50:11;95504.34;;;4.16;100.00
69570;BME280;56781;42.292;23.146;2023-03-04T03:52:38;95492.41;;;4.13;100.00
69570;BME280;56781;42.292;23.146;2023-03-04T03:55:05;95475.44;;;4.14;100.00
69570;BME280;56781;42.292;23.146;2023-03-04T03:57:32;95508.94;;;4.41;100.00
69570;BME280;56781;42.292;23.146;2023-03-04T04:00:00;95464.91;;;4.25;100.00
69570;BME280;56781;42.292;23.146;2023-03-04T04:02:27;95473.38;;;4.27;100.00
69570;BME280;56781;42.292;23.146;2023-03-04T04:04:54;95497.78;;;4.39;100.00
69570;BME280;56781;42.292;23.146;2023-03-04T04:07:21;95493.28;;;4.39;100.00
69570;BME280;56781;42.292;23.146;2023-03-04T04:09:48;95478.69;;;4.27;100.00
69570;BME280;56781;42.292;23.146;2023-03-04T04:12:17;95468.88;;;4.27;100.00
69570;BME280;56781;42.292;23.146;2023-03-04T04:14:44;95500.72;;;4.48;100.00
69570;BME280;56781;42.292;23.146;2023-03-04T04:17:11;95480.03;;;4.34;100.00
69570;BME280;56781;42.292;23.146;2023-03-04T04:19:39;95463.31;;;4.24;100.00
69570;BME280;56781;42.292;23.146;2023-03-04T04:22:13;95490.34;;;4.36;100.00
69570;BME280;56781;42.292;23.146;2023-03-04T04:24:40;95500.97;;;4.36;100.00
69570;BME280;56781;42.292;23.146;2023-03-04T04:27:07;95490.56;;;4.14;100.00
69570;BME280;56781;42.292;23.146;2023-03-04T04:29:34;95470.66;;;4.06;100.00
69570;BME280;56781;42.292;23.146;2023-03-04T04:32:02;95483.38;;;4.09;100.00
69570;BME280;56781;42.292;23.146;2023-03-04T04:34:29;95498.53;;;4.19;100.00
69570;BME280;56781;42.292;23.146;2023-03-04T04:36:56;95501.72;;;4.31;100.00
69570;BME280;56781;42.292;23.146;2023-03-04T04:39:23;95488.44;;;4.16;100.00
69570;BME280;56781;42.292;23.146;2023-03-04T04:41:51;95508.84;;;4.15;100.00
69570;BME280;56781;42.292;23.146;2023-03-04T04:44:18;95482.53;;;3.98;100.00
69570;BME280;56781;42.292;23.146;2023-03-04T04:46:45;95504.88;;;4.18;100.00
69570;BME280;56781;42.292;23.146;2023-03-04T04:49:12;95472.50;;;4.00;100.00
69570;BME280;56781;42.292;23.146;2023-03-04T04:51:39;95494.28;;;4.13;100.00
69570;BME280;56781;42.292;23.146;2023-03-04T04:54:06;95505.72;;;4.24;100.00
69570;BME280;56781;42.292;23.146;2023-03-04T04:56:33;95504.13;;;4.33;100.00
69570;BME280;56781;42.292;23.146;2023-03-04T04:59:03;95477.84;;;4.11;100.00
69570;BME280;56781;42.292;23.146;2023-03-04T05:01:30;95511.31;;;4.37;100.00
69570;BME280;56781;42.292;23.146;2023-03-04T05:03:58;95513.97;;;4.37;100.00
69570;BME280;56781;42.292;23.146;2023-03-04T05:06:25;95513.66;;;4.34;100.00
69570;BME280;56781;42.292;23.146;2023-03-04T05:08:53;95485.00;;;4.20;100.00
69570;BME280;56781;42.292;23.146;2023-03-04T05:11:20;95489.25;;;4.21;100.00
69570;BME280;56781;42.292;23.146;2023-03-04T05:13:47;95486.63;;;4.21;100.00
69570;BME280;56781;42.292;23.146;2023-03-04T05:16:16;95483.97;;;4.21;100.00
69570;BME280;56781;42.292;23.146;2023-03-04T05:18:43;95507.56;;;4.28;100.00
69570;BME280;56781;42.292;23.146;2023-03-04T05:21:11;95509.72;;;4.41;100.00
69570;BME280;56781;42.292;23.146;2023-03-04T05:23:41;95521.38;;;4.35;100.00
69570;BME280;56781;42.292;23.146;2023-03-04T05:26:12;95497.16;;;4.06;100.00
69570;BME280;56781;42.292;23.146;2023-03-04T05:28:40;95475.06;;;3.85;100.00
69570;BME280;56781;42.292;23.146;2023-03-04T05:31:08;95503.78;;;4.09;100.00
69570;BME280;56781;42.292;23.146;2023-03-04T05:33:36;95526.91;;;4.24;100.00
69570;BME280;56781;42.292;23.146;2023-03-04T05:36:05;95506.41;;;4.04;100.00
69570;BME280;56781;42.292;23.146;2023-03-04T05:38:32;95543.81;;;4.17;100.00
69570;BME280;56781;42.292;23.146;2023-03-04T05:41:03;95520.47;;;4.09;100.00
69570;BME280;56781;42.292;23.146;2023-03-04T05:43:31;95534.00;;;4.18;100.00
69570;BME280;56781;42.292;23.146;2023-03-04T05:46:02;95499.00;;;4.06;100.00
69570;BME280;56781;42.292;23.146;2023-03-04T05:48:30;95511.19;;;4.07;100.00
69570;BME280;56781;42.292;23.146;2023-03-04T05:50:59;95541.00;;;4.34;100.00
69570;BME280;56781;42.292;23.146;2023-03-04T05:53:27;95517.63;;;4.21;100.00
69570;BME280;56781;42.292;23.146;2023-03-04T05:55:55;95536.19;;;4.31;100.00
69570;BME280;56781;42.292;23.146;2023-03-04T05:58:22;95532.75;;;4.31;100.00
69570;BME280;56781;42.292;23.146;2023-03-04T06:00:49;95511.28;;;4.27;100.00
69570;BME280;56781;42.292;23.146;2023-03-04T06:03:18;95552.16;;;4.52;100.00
69570;BME280;56781;42.292;23.146;2023-03-04T06:05:46;95517.94;;;4.45;100.00
69570;BME280;56781;42.292;23.146;2023-03-04T06:08:13;95549.56;;;4.72;100.00
69570;BME280;56781;42.292;23.146;2023-03-04T06:10:41;95522.50;;;4.60;100.00
69570;BME280;56781;42.292;23.146;2023-03-04T06:13:09;95523.31;;;4.65;100.00
69570;BME280;56781;42.292;23.146;2023-03-04T06:15:38;95536.84;;;4.74;100.00
69570;BME280;56781;42.292;23.146;2023-03-04T06:18:06;95536.06;;;4.74;100.00
69570;BME280;56781;42.292;23.146;2023-03-04T06:20:34;95551.44;;;4.77;100.00
69570;BME280;56781;42.292;23.146;2023-03-04T06:23:01;95562.06;;;4.82;100.00
69570;BME280;56781;42.292;23.146;2023-03-04T06:25:29;95566.03;;;4.84;100.00
69570;BME280;56781;42.292;23.146;2023-03-04T06:27:56;95542.66;;;4.71;100.00
69570;BME280;56781;42.292;23.146;2023-03-04T06:30:23;95568.19;;;4.98;100.00
69570;BME280;56781;42.292;23.146;2023-03-04T06:32:50;95572.69;;;5.07;100.00
69570;BME280;56781;42.292;23.146;2023-03-04T06:35:18;95582.81;;;5.10;100.00
69570;BME280;56781;42.292;23.146;2023-03-04T06:37:45;95554.13;;;4.97;100.00
69570;BME280;56781;42.292;23.146;2023-03-04T06:40:13;95578.81;;;5.18;100.00
69570;BME280;56781;42.292;23.146;2023-03-04T06:42:40;95564.75;;;5.13;100.00
69570;BME280;56781;42.292;23.146;2023-03-04T06:45:08;95573.53;;;5.08;100.00
69570;BME280;56781;42.292;23.146;2023-03-04T06:47:36;95559.19;;;5.09;100.00
69570;BME280;56781;42.292;23.146;2023-03-04T06:50:04;95535.78;;;4.85;100.00
69570;BME280;56781;42.292;23.146;2023-03-04T06:52:31;95558.13;;;5.05;100.00
69570;BME280;56781;42.292;23.146;2023-03-04T06:54:58;95565.81;;;5.11;100.00
69570;BME280;56781;42.292;23.146;2023-03-04T06:57:25;95571.38;;;5.10;100.00
69570;BME280;56781;42.292;23.146;2023-03-04T06:59:52;95560.25;;;5.08;100.00
69570;BME280;56781;42.292;23.146;2023-03-04T07:02:19;95584.13;;;5.28;100.00
69570;BME280;56781;42.292;23.146;2023-03-04T07:04:47;95587.88;;;5.27;100.00
69570;BME280;56781;42.292;23.146;2023-03-04T07:07:14;95573.53;;;5.13;100.00
69570;BME280;56781;42.292;23.146;2023-03-04T07:09:41;95563.31;;;4.54;100.00
69570;BME280;56781;42.292;23.146;2023-03-04T07:12:08;95572.63;;;4.66;100.00
69570;BME280;56781;42.292;23.146;2023-03-04T07:14:35;95572.91;;;4.70;100.00
69570;BME280;56781;42.292;23.146;2023-03-04T07:17:02;95584.06;;;4.87;100.00
69570;BME280;56781;42.292;23.146;2023-03-04T07:19:29;95559.13;;;4.78;100.00
69570;BME280;56781;42.292;23.146;2023-03-04T07:21:56;95558.88;;;4.85;100.00
69570;BME280;56781;42.292;23.146;2023-03-04T07:24:23;95545.88;;;4.78;100.00
69570;BME280;56781;42.292;23.146;2023-03-04T07:26:50;95579.59;;;4.98;100.00
69570;BME280;56781;42.292;23.146;2023-03-04T07:29:18;95562.91;;;5.03;100.00
69570;BME280;56781;42.292;23.146;2023-03-04T07:31:45;95571.16;;;5.22;100.00
69570;BME280;56781;42.292;23.146;2023-03-04T07:34:13;95574.03;;;5.15;100.00
69570;BME280;56781;42.292;23.146;2023-03-04T07:36:41;95568.22;;;5.23;100.00
69570;BME280;56781;42.292;23.146;2023-03-04T07:39:09;95557.09;;;5.21;100.00
69570;BME280;56781;42.292;23.146;2023-03-04T07:41:37;95545.91;;;5.34;100.00
69570;BME280;56781;42.292;23.146;2023-03-04T07:44:05;95552.28;;;5.28;100.00
69570;BME280;56781;42.292;23.146;2023-03-04T07:46:33;95575.66;;;5.62;100.00
69570;BME280;56781;42.292;23.146;2023-03-04T07:49:00;95572.72;;;5.74;100.00
69570;BME280;56781;42.292;23.146;2023-03-04T07:51:27;95549.13;;;5.47;100.00
69570;BME280;56781;42.292;23.146;2023-03-04T07:53:59;95546.41;;;5.83;100.00
69570;BME280;56781;42.292;23.146;2023-03-04T07:56:30;95546.16;;;5.89;100.00
69570;BME280;56781;42.292;23.146;2023-03-04T07:58:58;95552.25;;;5.90;100.00
69570;BME280;56781;42.292;23.146;2023-03-04T08:01:31;95535.69;;;6.24;100.00
69570;BME280;56781;42.292;23.146;2023-03-04T08:03:59;95547.38;;;6.38;100.00
69570;BME280;56781;42.292;23.146;2023-03-04T08:06:27;95553.66;;;6.57;100.00
69570;BME280;56781;42.292;23.146;2023-03-04T08:09:02;95552.00;;;6.66;98.44
69570;BME280;56781;42.292;23.146;2023-03-04T08:11:31;95550.28;;;6.91;98.09
69570;BME280;56781;42.292;23.146;2023-03-04T08:13:59;95565.75;;;7.28;97.73
69570;BME280;56781;42.292;23.146;2023-03-04T08:16:26;95549.44;;;7.35;97.14
69570;BME280;56781;42.292;23.146;2023-03-04T08:18:55;95539.91;;;7.29;95.89
69570;BME280;56781;42.292;23.146;2023-03-04T08:21:24;95571.69;;;7.84;95.13
69570;BME280;56781;42.292;23.146;2023-03-04T08:23:52;95536.06;;;7.74;94.68
69570;BME280;56781;42.292;23.146;2023-03-04T08:26:23;95572.31;;;7.99;93.58
69570;BME280;56781;42.292;23.146;2023-03-04T08:28:51;95553.94;;;7.74;94.00
69570;BME280;56781;42.292;23.146;2023-03-04T08:31:19;95554.72;;;8.04;91.83
69570;BME280;56781;42.292;23.146;2023-03-04T08:33:47;95545.97;;;7.98;88.51
69570;BME280;56781;42.292;23.146;2023-03-04T08:36:14;95552.13;;;7.93;89.50
69570;BME280;56781;42.292;23.146;2023-03-04T08:38:42;95573.59;;;8.31;88.65
69570;BME280;56781;42.292;23.146;2023-03-04T08:41:09;95554.47;;;8.24;89.08
69570;BME280;56781;42.292;23.146;2023-03-04T08:43:36;95572.69;;;8.17;90.81
69570;BME280;56781;42.292;23.146;2023-03-04T08:46:04;95536.72;;;7.61;92.46
69570;BME280;56781;42.292;23.146;2023-03-04T08:48:32;95558.81;;;8.20;90.81
69570;BME280;56781;42.292;23.146;2023-03-04T08:50:59;95547.31;;;8.19;88.95
69570;BME280;56781;42.292;23.146;2023-03-04T08:53:26;95552.59;;;7.42;91.13
69570;BME280;56781;42.292;23.146;2023-03-04T08:55:53;95576.91;;;7.65;90.68
69570;BME280;56781;42.292;23.146;2023-03-04T08:58:20;95576.38;;;8.21;91.83
69570;BME280;56781;42.292;23.146;2023-03-04T09:00:48;95549.16;;;8.24;89.11
69570;BME280;56781;42.292;23.146;2023-03-04T09:03:18;95551.69;;;8.39;87.55
69570;BME280;56781;42.292;23.146;2023-03-04T09:05:47;95550.97;;;8.05;88.58
69570;BME280;56781;42.292;23.146;2023-03-04T09:08:15;95546.88;;;8.12;86.51
69570;BME280;56781;42.292;23.146;2023-03-04T09:10:44;95536.03;;;8.04;86.32
69570;BME280;56781;42.292;23.146;2023-03-04T09:13:11;95543.34;;;8.17;83.19
69570;BME280;56781;42.292;23.146;2023-03-04T09:15:45;95542.59;;;8.40;83.65
69570;BME280;56781;42.292;23.146;2023-03-04T09:18:13;95556.53;;;8.32;83.54
69570;BME280;56781;42.292;23.146;2023-03-04T09:20:40;95539.09;;;8.16;82.51
69570;BME280;56781;42.292;23.146;2023-03-04T09:23:07;95532.94;;;8.45;85.48
69570;BME280;56781;42.292;23.146;2023-03-04T09:25:36;95534.63;;;8.59;82.04
69570;BME280;56781;42.292;23.146;2023-03-04T09:28:04;95531.53;;;8.52;81.07
69570;BME280;56781;42.292;23.146;2023-03-04T09:30:33;95534.06;;;7.90;82.08
69570;BME280;56781;42.292;23.146;2023-03-04T09:33:00;95541.00;;;8.39;82.99
69570;BME280;56781;42.292;23.146;2023-03-04T09:35:28;95530.72;;;8.71;83.45
69570;BME280;56781;42.292;23.146;2023-03-04T09:37:58;95529.88;;;8.75;82.74
69570;BME280;56781;42.292;23.146;2023-03-04T09:40:40;95530.16;;;8.74;81.51
69570;BME280;56781;42.292;23.146;2023-03-04T09:43:18;95530.59;;;8.62;82.77
69570;BME280;56781;42.292;23.146;2023-03-04T09:45:49;95549.22;;;9.05;85.17
69570;BME280;56781;42.292;23.146;2023-03-04T09:48:27;95544.97;;;9.04;82.74
69570;BME280;56781;42.292;23.146;2023-03-04T09:51:30;95539.19;;;8.97;83.21
69570;BME280;56781;42.292;23.146;2023-03-04T09:56:50;95507.84;;;8.21;82.25
69570;BME280;56781;42.292;23.146;2023-03-04T09:59:25;95508.94;;;8.45;83.09
69570;BME280;56781;42.292;23.146;2023-03-04T10:01:57;95511.25;;;8.27;84.43
69570;BME280;56781;42.292;23.146;2023-03-04T10:04:36;95520.38;;;8.21;86.84
69570;BME280;56781;42.292;23.146;2023-03-04T10:07:17;95519.44;;;8.12;85.49
69570;BME280;56781;42.292;23.146;2023-03-04T10:10:00;95537.63;;;8.05;85.90
69570;BME280;56781;42.292;23.146;2023-03-04T10:12:32;95533.78;;;8.16;86.27
69570;BME280;56781;42.292;23.146;2023-03-04T10:15:04;95505.22;;;7.92;88.25
69570;BME280;56781;42.292;23.146;2023-03-04T10:17:36;95525.44;;;7.98;84.88
69570;BME280;56781;42.292;23.146;2023-03-04T10:20:25;95507.72;;;7.84;87.52
69570;BME280;56781;42.292;23.146;2023-03-04T10:22:58;95493.41;;;7.50;89.02
69570;BME280;56781;42.292;23.146;2023-03-04T10:25:27;95498.03;;;7.69;87.57
69570;BME280;56781;42.292;23.146;2023-03-04T10:28:01;95502.44;;;7.78;88.94
69570;BME280;56781;42.292;23.146;2023-03-04T10:33:20;95479.50;;;7.53;86.77
69570;BME280;56781;42.292;23.146;2023-03-04T10:36:04;95495.41;;;7.64;88.90
69570;BME280;56781;42.292;23.146;2023-03-04T10:38:35;95486.44;;;7.54;88.36
69570;BME280;56781;42.292;23.146;2023-03-04T10:41:20;95484.03;;;7.82;90.20
69570;BME280;56781;42.292;23.146;2023-03-04T10:44:14;95481.59;;;7.86;87.43
69570;BME280;56781;42.292;23.146;2023-03-04T10:46:45;95488.56;;;8.06;88.25
69570;BME280;56781;42.292;23.146;2023-03-04T10:49:15;95467.13;;;7.92;86.61
69570;BME280;56781;42.292;23.146;2023-03-04T10:52:13;95473.88;;;8.08;84.88
69570;BME280;56781;42.292;23.146;2023-03-04T10:54:49;95455.16;;;8.32;85.71
69570;BME280;56781;42.292;23.146;2023-03-04T10:57:27;95462.38;;;8.32;79.60
69570;BME280;56781;42.292;23.146;2023-03-04T10:59:59;95445.53;;;8.36;83.74
69570;BME280;56781;42.292;23.146;2023-03-04T11:02:31;95445.91;;;8.68;83.43
69570;BME280;56781;42.292;23.146;2023-03-04T11:05:14;95450.66;;;8.52;84.95
69570;BME280;56781;42.292;23.146;2023-03-04T11:07:47;95454.34;;;8.94;85.03
69570;BME280;56781;42.292;23.146;2023-03-04T11:13:16;95449.75;;;8.42;84.46
69570;BME280;56781;42.292;23.146;2023-03-04T11:18:15;95411.59;;;8.42;82.32
69570;BME280;56781;42.292;23.146;2023-03-04T11:20:45;95436.69;;;8.17;83.62
69570;BME280;56781;42.292;23.146;2023-03-04T11:23:34;95438.28;;;8.42;84.45
69570;BME280;56781;42.292;23.146;2023-03-04T11:26:13;95407.34;;;8.41;85.95
69570;BME280;56781;42.292;23.146;2023-03-04T11:28:46;95423.56;;;8.45;84.02
69570;BME280;56781;42.292;23.146;2023-03-04T11:31:19;95406.56;;;8.40;82.78
69570;BME280;56781;42.292;23.146;2023-03-04T11:33:54;95425.66;;;8.48;82.57
69570;BME280;56781;42.292;23.146;2023-03-04T11:42:54;95405.59;;;8.69;82.27
69570;BME280;56781;42.292;23.146;2023-03-04T11:51:36;95413.69;;;9.16;81.36
69570;BME280;56781;42.292;23.146;2023-03-04T12:03:02;95387.94;;;9.20;80.39
69570;BME280;56781;42.292;23.146;2023-03-04T12:06:06;95404.13;;;9.42;79.44
69570;BME280;56781;42.292;23.146;2023-03-04T12:08:48;95376.47;;;9.19;81.22
69570;BME280;56781;42.292;23.146;2023-03-04T12:11:29;95382.09;;;9.04;81.56
69570;BME280;56781;42.292;23.146;2023-03-04T12:14:10;95397.88;;;8.68;82.33
69570;BME280;56781;42.292;23.146;2023-03-04T12:17:05;95395.50;;;8.85;80.20
69570;BME280;56781;42.292;23.146;2023-03-04T12:20:02;95370.81;;;8.93;81.20
69570;BME280;56781;42.292;23.146;2023-03-04T12:22:45;95380.16;;;8.77;81.38
69570;BME280;56781;42.292;23.146;2023-03-04T12:25:31;95376.84;;;8.28;82.13
69570;BME280;56781;42.292;23.146;2023-03-04T12:36:40;95348.41;;;8.37;84.60
69570;BME280;56781;42.292;23.146;2023-03-04T12:39:39;95346.34;;;8.53;84.65
69570;BME280;56781;42.292;23.146;2023-03-04T12:42:24;95366.94;;;8.67;81.56
69570;BME280;56781;42.292;23.146;2023-03-04T12:47:54;95356.88;;;9.10;80.25
69570;BME280;56781;42.292;23.146;2023-03-04T12:50:38;95334.16;;;9.13;78.61
69570;BME280;56781;42.292;23.146;2023-03-04T12:53:24;95327.53;;;9.10;79.63
69570;BME280;56781;42.292;23.146;2023-03-04T12:55:56;95325.88;;;8.81;79.18
69570;BME280;56781;42.292;23.146;2023-03-04T12:58:29;95352.38;;;9.38;80.42
69570;BME280;56781;42.292;23.146;2023-03-04T13:03:38;95348.53;;;9.58;79.04
69570;BME280;56781;42.292;23.146;2023-03-04T13:06:18;95342.06;;;9.73;78.19
69570;BME280;56781;42.292;23.146;2023-03-04T13:08:55;95339.31;;;9.78;76.97
69570;BME280;56781;42.292;23.146;2023-03-04T13:16:46;95306.94;;;10.30;75.49
69570;BME280;56781;42.292;23.146;2023-03-04T13:19:42;95326.59;;;10.48;75.98
69570;BME280;56781;42.292;23.146;2023-03-04T13:22:32;95302.94;;;9.91;75.89
69570;BME280;56781;42.292;23.146;2023-03-04T13:38:22;95307.97;;;10.96;75.24
69570;BME280;56781;42.292;23.146;2023-03-04T13:51:34;95310.16;;;10.40;74.32
69570;BME280;56781;42.292;23.146;2023-03-04T13:59:53;95282.72;;;9.07;77.48
69570;BME280;56781;42.292;23.146;2023-03-04T14:02:23;95294.38;;;9.39;80.04
69570;BME280;56781;42.292;23.146;2023-03-04T14:04:59;95278.34;;;9.39;79.22
69570;BME280;56781;42.292;23.146;2023-03-04T14:07:31;95277.94;;;9.59;78.55
69570;BME280;56781;42.292;23.146;2023-03-04T14:10:04;95264.59;;;9.45;77.32
69570;BME280;56781;42.292;23.146;2023-03-04T14:12:47;95277.41;;;9.85;74.33
69570;BME280;56781;42.292;23.146;2023-03-04T14:17:46;95263.47;;;10.10;72.72
69570;BME280;56781;42.292;23.146;2023-03-04T14:20:25;95269.84;;;10.23;73.71
69570;BME280;56781;42.292;23.146;2023-03-04T14:22:54;95258.03;;;10.38;73.24
69570;BME280;56781;42.292;23.146;2023-03-04T14:25:29;95264.31;;;10.19;75.76
69570;BME280;56781;42.292;23.146;2023-03-04T14:28:12;95249.84;;;9.98;74.31
69570;BME280;56781;42.292;23.146;2023-03-04T14:30:41;95242.88;;;9.74;74.77
69570;BME280;56781;42.292;23.146;2023-03-04T14:33:15;95239.44;;;9.60;76.13
69570;BME280;56781;42.292;23.146;2023-03-04T14:35:46;95242.56;;;9.40;75.32
69570;BME280;56781;42.292;23.146;2023-03-04T14:38:33;95233.44;;;9.27;76.41
69570;BME280;56781;42.292;23.146;2023-03-04T14:41:15;95240.78;;;8.94;77.54
69570;BME280;56781;42.292;23.146;2023-03-04T14:46:29;95230.09;;;8.94;78.59